METAR Data
IDs: Format: Raw Decoded Include TAF

Data at: 1456 UTC 18 Aug 2019

PABL 181433Z AUTO 00000KT 1/4SM FG BKN002 03/02 A3053 RMK AO2
PABL 181425Z AUTO 00000KT 1/2SM FG VV002 03/03 A3053 RMK AO2 VIS M1/4V5
PABL 181421Z AUTO 00000KT 1SM BR VV002 03/03 A3053 RMK AO2 VIS 1/4V5
PABL 181416Z AUTO 00000KT 1/2SM FG VV002 03/03 A3054 RMK AO2
PABL 181410Z AUTO 00000KT 1/4SM FG VV001 03/03 A3054 RMK AO2
PABL 181402Z AUTO 00000KT 1/4SM FG VV002 03/02 A3054 RMK AO2
PABL 181356Z AUTO 00000KT 1/2SM FG VV001 03/02 A3054 RMK AO2 SLP343 T00280022
PABL 181349Z AUTO 00000KT 3/4SM BR VV001 03/03 A3054 RMK AO2 VIS 1/4V2 1/2
PABL 181344Z AUTO 00000KT 3/4SM BR CLR 03/03 A3054 RMK AO2 VIS 1/4V5
PABL 181338Z AUTO 00000KT 1 1/4SM BR CLR 03/03 A3054 RMK AO2 VIS 1/2V5
PABL 181328Z AUTO 00000KT 1 1/4SM BR FEW001 04/03 A3054 RMK AO2
PABL 181310Z AUTO 00000KT 3SM BR FEW001 03/03 A3055 RMK AO2
PABL 181307Z AUTO 00000KT 1 1/4SM BR FEW001 03/03 A3055 RMK AO2
PABL 181305Z AUTO 00000KT 3/4SM BR VV001 03/03 A3055 RMK AO2
PABL 181256Z AUTO 00000KT 1/4SM FG CLR 03/03 A3055 RMK AO2 SLP347 T00330033
PABL 181246Z AUTO 00000KT 1/2SM FG CLR 03/03 A3055 RMK AO2
PABL 181238Z AUTO 00000KT 1/4SM FG VV002 03/03 A3055 RMK AO2
PABL 181232Z AUTO 00000KT 3/4SM BR VV002 03/03 A3056 RMK AO2 VIS 1/4V5
PABL 181230Z AUTO 00000KT 1 1/4SM BR CLR 03/03 A3056 RMK AO2 VIS 1/2V5
PABL 181216Z AUTO 00000KT 6SM BR FEW002 03/03 A3056 RMK AO2
PABL 181214Z AUTO 00000KT 2SM BR CLR 04/03 A3056 RMK AO2
PABL 181156Z AUTO 00000KT 3/4SM BR VV002 04/03 A3056 RMK AO2 SLP353 T00390033 10111 20033 55005
PABL 181154Z AUTO 00000KT 3/4SM BR CLR 04/04 A3056 RMK AO2
PABL 181152Z AUTO 00000KT 1 1/4SM BR CLR 04/04 A3056 RMK AO2 VIS 3/4V5
PABL 181145Z AUTO 11003KT 1SM BR CLR 03/03 A3057 RMK AO2 VIS 1/2V2 1/2
PABL 181133Z AUTO 11003KT 1/2SM FG CLR 04/04 A3057 RMK AO2
PABL 181124Z AUTO 00000KT 3/4SM BR CLR 04/04 A3057 RMK AO2 VIS 1/2V5
PABL 181121Z AUTO 14003KT 1 1/2SM BR CLR 04/04 A3057 RMK AO2 VIS 1/2V5
PABL 181056Z AUTO 00000KT 10SM CLR 04/04 A3057 RMK AO2 SLP356 T00440044
PABL 181050Z AUTO 00000KT 3SM BR CLR 04/04 A3057 RMK AO2
PABL 181045Z AUTO 00000KT 1 1/2SM BR CLR 04/04 A3057 RMK AO2
PABL 181041Z AUTO 10003KT 1SM BR VV002 04/04 A3058 RMK AO2
PABL 181031Z AUTO 00000KT 1 3/4SM BR FEW001 05/04 A3057 RMK AO2
PABL 181020Z AUTO 00000KT 8SM FEW001 05/04 A3058 RMK AO2
PABL 180956Z AUTO 00000KT 8SM CLR 05/04 A3058 RMK AO2 SLP357 T00500044
PABL 180856Z AUTO 14004KT 7SM CLR 07/06 A3059 RMK AO2 SLP362 T00670056 58002
PABL 180756Z AUTO 00000KT 10SM CLR 07/06 A3059 RMK AO2 SLP363 T00720056 401560011
PABL 180656Z AUTO 31007KT 10SM CLR 09/06 A3060 RMK AO2 SLP364 T00890061
PABL 180556Z AUTO 31007KT 10SM CLR 11/07 A3060 RMK AO2 SLP364 T01110067 10156 20111 58003
PABL 180456Z AUTO 33007KT 10SM CLR 13/06 A3060 RMK AO2 SLP364 T01330056
PABL 180356Z AUTO 34009KT 10SM CLR 14/06 A3061 RMK AO2 SLP367 T01390056
PABL 180256Z AUTO 34010KT 10SM CLR 15/03 A3061 RMK AO2 SLP367 T01500028 58008
PABL 180156Z AUTO 35009KT 10SM CLR 16/03 A3062 RMK AO2 SLP370 T01560033
PABL 172356Z AUTO 33008KT 10SM CLR 14/03 A3063 RMK AO2 SLP376 T01440033 10144 20061 58010
PABL 172256Z AUTO 34010KT 10SM CLR 14/03 A3065 RMK AO2 SLP380 T01390033
PABL 172156Z AUTO 34009KT 10SM CLR 13/03 A3066 RMK AO2 SLP384 T01280033
PABL 171956Z AUTO 01003KT 10SM CLR 11/02 A3066 RMK AO2 SLP386 T01110022
PABL 171856Z AUTO 31003KT 10SM CLR 09/04 A3066 RMK AO2 SLP384 T00890039
PABL 171756Z AUTO VRB03KT 10SM CLR 06/04 A3066 RMK AO2 SLP384 T00610044 10067 20011 53010
PABL 171656Z AUTO 00000KT 10SM CLR 05/04 A3064 RMK AO2 SLP380 T00500039
PABL 171556Z AUTO 30003KT 10SM CLR 04/03 A3064 RMK AO2 SLP377 T00390028
PABL 171456Z AUTO 32004KT 10SM CLR 02/02 A3063 RMK AO2 SLP373 T00220017 51011 FZRANO
PABL 171356Z AUTO 00000KT 10SM CLR 02/02 A3062 RMK AO2 SLP372 T00220017 FZRANO
PABL 171329Z AUTO 00000KT 10SM FEW002 02/02 A3062 RMK AO2 FZRANO
PABL 171253Z AUTO 00000KT 3SM BR CLR 03/03 A3061 RMK AO2
PABL 171243Z AUTO 00000KT 1 3/4SM BR CLR 02/02 A3061 RMK AO2 VIS 3/4V5 FZRANO
PABL 171156Z AUTO 01003KT 10SM CLR 04/03 A3059 RMK AO2 SLP362 T00390028 10117 20039 52016
PABL 171056Z AUTO 00000KT 10SM CLR 06/04 A3058 RMK AO2 SLP357 T00560039
PABL 170956Z AUTO 34006KT 10SM CLR 07/05 A3056 RMK AO2 SLP351 T00720050
PABL 170856Z AUTO 32005KT 10SM CLR 09/07 A3055 RMK AO2 SLP346 T00890072 51020
PABL 170756Z AUTO 36007KT 10SM CLR 10/07 A3053 RMK AO2 SLP342 T01000072 401330072
PABL 170656Z AUTO 31012KT 10SM CLR 11/09 A3051 RMK AO2 SLP332 T01060094
PABL 170556Z AUTO 30011KT 10SM CLR 12/09 A3049 RMK AO2 SLP326 T01170094 10128 20117 53017
PABL 170456Z AUTO 30014KT 10SM OVC040 12/09 A3047 RMK AO2 SLP319 T01220089
PABL 170356Z AUTO 32012KT 10SM OVC034 13/07 A3045 RMK AO2 SLP315 T01280072